Georg Jacob — A8XG5 — position and weather

sailwx.info

Track history (hours):
 
Tides and Currents Weather Stations Pressure Air Temp Water Temp Dewpoint Dewpoint Depression Visibility Wind Speed Wind Dir Waves Ship Positions

Georg Jacob

Last reported at 2017-Jan-14 20:19 UTC. Time now 2017-Jan-16 12:44 UTC.
Position N 01°56' E 102°19'.

Length 229 m; draft 8.5 m.

Type: Tanker. MMSI: 636092136.

Date/timePositionNaut miles runAvg speedWind from/ knotsBaromVisibWave heightAir tempDewpointWater temp
2017-Jan-14 20:19N 01°56' E 102°19'1013.4
2017-Jan-14 19:33N 01°51' E 102°29'1313.2
2017-Jan-14 18:33N 01°46' E 102°41'81 9.9
2017-Jan-14 10:24N 01°13' E 103°55'  
2017-Jan-05 16:14N 23°08' E 119°35'811.5
2017-Jan-05 15:33N 23°04' E 119°28'1110.9
2017-Jan-05 14:33N 22°54' E 119°22'1110.8
2017-Jan-05 13:32N 22°44' E 119°18'2110.4
2017-Jan-05 11:33N 22°25' E 119°11'  
Track history (hours):
 
Tides and Currents Weather Stations Pressure Air Temp Water Temp Dewpoint Dewpoint Depression Visibility Wind Speed Wind Dir Waves Ship Positions

Georg Jacob

Last reported at 2017-Jan-14 20:19 UTC. Time now 2017-Jan-16 12:44 UTC.
Position N 01°56' E 102°19'.

Length 229 m; draft 8.5 m.

Type: Tanker. MMSI: 636092136.

Date/timePositionNaut miles runAvg speedWind from/ knotsBaromVisibWave heightAir tempDewpointWater temp
2017-Jan-14 20:19N 01°56' E 102°19'1013.4
2017-Jan-14 19:33N 01°51' E 102°29'1313.2
2017-Jan-14 18:33N 01°46' E 102°41'81 9.9
2017-Jan-14 10:24N 01°13' E 103°55'  
2017-Jan-05 16:14N 23°08' E 119°35'811.5
2017-Jan-05 15:33N 23°04' E 119°28'1110.9
2017-Jan-05 14:33N 22°54' E 119°22'1110.8
2017-Jan-05 13:32N 22°44' E 119°18'2110.4
2017-Jan-05 11:33N 22°25' E 119°11'  

Dump ship's entire track history